KDFI/DFI METAR and TAF weather

Enter ICAO airport designator
Station Type Date Time Source
KDFI METAR 2018/07/21 22:53 UTC NOAA

KDFI 212253Z AUTO 08004KT 10SM -RA FEW007 FEW049 OVC060 21/20 A2973 RMK AO2 SLP063 P0006 T02110200


Station Type Date Time Source
KDFI Decoded METAR 2018/07/21 22:53 UTC NOAA

DEFIANCE MEMORIAL AIRPORT, OH, United States (KDFI) 41-20N 84-26W 219M
Jul 21, 2018 - 06:53 PM EDT / 2018.07.21 2253 UTC
Wind: from the E (080 degrees) at 5 MPH (4 KT):0
Visibility: 10 mile(s):0
Sky conditions: overcast
Weather: light rain
Precipitation last hour: 0.06 inches
Temperature: 70.0 F (21.1 C)
Dew Point: 68.0 F (20.0 C)
Relative Humidity: 93%
Pressure (altimeter): 29.73 in. Hg (1006 hPa)
ob: KDFI 212253Z AUTO 08004KT 10SM -RA FEW007 FEW049 OVC060 21/20 A2973 RMK AO2 SLP063 P0006 T02110200
cycle: 23

Station Type Date Time Source
KDFI TAF UTC NOAA

Error!


Example: see airport list